Charlevoix, Michigan
Current Conditions -  °F | °C
As of 1:54 PM on Friday 31 Oct 2014 (Local Time) from KCVX Reporting Station
Overcast Overcast  
Wind Chill: 22°   Ceiling: 3000
Heat Index: 34°   Visibility: 10mi
Dew Point: 24°   Wind: 20mph
Humidity: 68%   Direction: 40°NE
Pressure: 30.25"   Gusts: 29mph
Location:  45.32°N, 85.26°W
Report Text: KCVX 311754Z AUTO 04017G25KT 10SM BKN030 OVC037 01/M04 A3025 RMK AO2 T00091044 10012 20001
Loading
Personal Weather Stations






























Interactive Weather Map
Tropical Storm Tracking
New forecast layout! Learn more

10-Day Weather Forecast

Advertisements
Track Severe Weather on mobile